Estación Meteorológica Peña el Pijo (Robertgarden) [ 11/20/18 01:41:01 CET ]

Fecha Hora Presion(HPa) Temp (°C) Humedad % Rocio (°C) Viento ( m/s) Direccion Lluvia 1Hora(mm) Lluvia 24H(mm) LLuvia Total(mm)
2018-Nov-09 01:01:39 1006.900 6.8 81 3.8 3.1 NNW 1.03 2.59 98.93
2018-Nov-09 02:01:50 1006.100 4.4 83 1.8     2.07 4.66 101.01
2018-Nov-09 03:01:47 1005.800 2.9 84 0.4       4.66 101.01
2018-Nov-09 04:08:04 1005.900 3.2 85 0.9       4.66 101.01
2018-Nov-09 05:02:02 1006.000 3.6 84 1.1 1.2 WNW   4.66 101.01
2018-Nov-09 06:01:55 1006.500 4.2 82 1.4 1.1 N   4.66 101.01
2018-Nov-09 07:01:41 1007.000 4.1 83 1.5       4.66 101.01
2018-Nov-09 08:01:59 1007.200 3.6 85 1.3     1.03 5.69 102.04
2018-Nov-09 09:01:49 1007.700 3.9 86 1.8       5.69 102.04
2018-Nov-09 10:01:49 1008.200 5.6 83 2.9       5.69 102.04
2018-Nov-09 11:01:49 1009.300 8.4 74 4.0 4.5 WNW   5.69 102.04
2018-Nov-09 12:01:50 1009.200 8.7 68 3.1       5.69 102.04
2018-Nov-09 13:01:34 1008.600 8.9 67 3.1       5.69 102.04
2018-Nov-09 14:01:53 1008.400 9.9 63 3.2       5.69 102.04
2018-Nov-09 15:01:50 1007.900 9.2 64 2.7 2.6 N   5.69 102.04
2018-Nov-09 16:01:52 1007.800 9.8 60 2.4 3.7 NNW   5.69 102.04
2018-Nov-09 17:01:43 1007.700 7.6 64 1.2       5.69 102.04
2018-Nov-09 18:01:47 1008.300 6.4 69 1.1       5.69 102.04
2018-Nov-09 19:01:42 1009.000 5.7 71 0.9       5.69 102.04
2018-Nov-09 20:02:14 1009.700 6.1 74 1.8       5.18 102.04
2018-Nov-09 21:01:43 1009.700 6.4 73 1.9 2.1 NNW   4.14 102.04
2018-Nov-09 22:01:42 1010.100 7.0 72 2.3       4.14 102.04
2018-Nov-09 23:01:29 1009.700 7.2 74 2.9 0.7 NW   4.14 102.04

Temperatura Máxima:    Temperatura Mínima:
Presión Máxima:1010.100 Hpa    Presión Mínima:1005.800 Hpa


Volver